sensor_id;sensor_type;location;lat;lon;timestamp;P1;durP1;ratioP1;P2;durP2;ratioP2
417;SDS011;49;48.530;9.200;2023-07-30T00:00:09;7.37;;;5.00;;
417;SDS011;49;48.530;9.200;2023-07-30T00:02:36;6.30;;;5.00;;
417;SDS011;49;48.530;9.200;2023-07-30T00:05:03;9.67;;;5.27;;
417;SDS011;49;48.530;9.200;2023-07-30T00:07:31;7.90;;;5.67;;
417;SDS011;49;48.530;9.200;2023-07-30T00:10:11;9.67;;;5.20;;
417;SDS011;49;48.530;9.200;2023-07-30T00:12:38;7.90;;;5.27;;
417;SDS011;49;48.530;9.200;2023-07-30T00:15:06;8.90;;;5.00;;
417;SDS011;49;48.530;9.200;2023-07-30T00:17:33;9.70;;;5.47;;
417;SDS011;49;48.530;9.200;2023-07-30T00:20:00;10.10;;;5.57;;
417;SDS011;49;48.530;9.200;2023-07-30T00:22:27;8.77;;;5.93;;
417;SDS011;49;48.530;9.200;2023-07-30T00:24:53;10.90;;;6.00;;
417;SDS011;49;48.530;9.200;2023-07-30T00:27:22;9.13;;;6.10;;
417;SDS011;49;48.530;9.200;2023-07-30T00:29:49;10.47;;;6.03;;
417;SDS011;49;48.530;9.200;2023-07-30T00:32:16;25.73;;;5.93;;
417;SDS011;49;48.530;9.200;2023-07-30T00:34:42;7.37;;;5.50;;
417;SDS011;49;48.530;9.200;2023-07-30T00:37:09;8.53;;;6.00;;
417;SDS011;49;48.530;9.200;2023-07-30T00:39:36;7.50;;;5.83;;
417;SDS011;49;48.530;9.200;2023-07-30T00:42:03;14.90;;;5.23;;
417;SDS011;49;48.530;9.200;2023-07-30T00:44:32;6.17;;;5.20;;
417;SDS011;49;48.530;9.200;2023-07-30T00:46:59;8.13;;;5.13;;
417;SDS011;49;48.530;9.200;2023-07-30T00:49:26;5.83;;;4.87;;
417;SDS011;49;48.530;9.200;2023-07-30T00:51:53;7.00;;;4.70;;
417;SDS011;49;48.530;9.200;2023-07-30T00:54:21;7.13;;;4.90;;
417;SDS011;49;48.530;9.200;2023-07-30T00:56:50;6.60;;;4.63;;
417;SDS011;49;48.530;9.200;2023-07-30T00:59:17;14.57;;;4.47;;
417;SDS011;49;48.530;9.200;2023-07-30T01:01:46;13.17;;;4.57;;
417;SDS011;49;48.530;9.200;2023-07-30T01:04:13;8.70;;;5.80;;
417;SDS011;49;48.530;9.200;2023-07-30T01:06:41;6.57;;;4.57;;
417;SDS011;49;48.530;9.200;2023-07-30T01:09:08;7.73;;;4.70;;
417;SDS011;49;48.530;9.200;2023-07-30T01:11:36;8.60;;;4.70;;
417;SDS011;49;48.530;9.200;2023-07-30T01:14:05;10.80;;;4.60;;
417;SDS011;49;48.530;9.200;2023-07-30T01:16:32;7.10;;;4.20;;
417;SDS011;49;48.530;9.200;2023-07-30T01:19:00;8.40;;;4.53;;
417;SDS011;49;48.530;9.200;2023-07-30T01:21:32;14.10;;;4.70;;
417;SDS011;49;48.530;9.200;2023-07-30T01:23:59;6.80;;;4.30;;
417;SDS011;49;48.530;9.200;2023-07-30T01:26:27;6.23;;;4.40;;
417;SDS011;49;48.530;9.200;2023-07-30T01:28:58;6.57;;;4.60;;
417;SDS011;49;48.530;9.200;2023-07-30T01:31:30;6.70;;;4.20;;
417;SDS011;49;48.530;9.200;2023-07-30T01:34:00;8.10;;;4.43;;
417;SDS011;49;48.530;9.200;2023-07-30T01:36:29;7.07;;;4.53;;
417;SDS011;49;48.530;9.200;2023-07-30T01:38:58;13.30;;;5.10;;
417;SDS011;49;48.530;9.200;2023-07-30T01:41:26;6.80;;;4.10;;
417;SDS011;49;48.530;9.200;2023-07-30T01:43:53;10.20;;;4.70;;
417;SDS011;49;48.530;9.200;2023-07-30T01:46:20;11.13;;;4.10;;
417;SDS011;49;48.530;9.200;2023-07-30T01:48:49;10.20;;;4.87;;
417;SDS011;49;48.530;9.200;2023-07-30T01:51:16;6.67;;;4.83;;
417;SDS011;49;48.530;9.200;2023-07-30T01:53:43;6.20;;;4.40;;
417;SDS011;49;48.530;9.200;2023-07-30T01:56:11;6.20;;;4.57;;
417;SDS011;49;48.530;9.200;2023-07-30T02:02:00;6.80;;;4.13;;
417;SDS011;49;48.530;9.200;2023-07-30T02:04:27;8.23;;;4.83;;
417;SDS011;49;48.530;9.200;2023-07-30T02:06:54;5.00;;;4.27;;
417;SDS011;49;48.530;9.200;2023-07-30T02:09:21;7.53;;;4.70;;
417;SDS011;49;48.530;9.200;2023-07-30T02:11:49;6.60;;;4.30;;
417;SDS011;49;48.530;9.200;2023-07-30T02:14:17;5.67;;;4.50;;
417;SDS011;49;48.530;9.200;2023-07-30T02:16:44;8.40;;;4.43;;
417;SDS011;49;48.530;9.200;2023-07-30T02:19:11;5.47;;;4.60;;
417;SDS011;49;48.530;9.200;2023-07-30T02:21:38;5.93;;;4.23;;
417;SDS011;49;48.530;9.200;2023-07-30T02:24:07;7.33;;;4.73;;
417;SDS011;49;48.530;9.200;2023-07-30T02:26:36;7.30;;;5.27;;
417;SDS011;49;48.530;9.200;2023-07-30T02:29:05;7.20;;;4.10;;
417;SDS011;49;48.530;9.200;2023-07-30T02:31:33;9.13;;;4.80;;
417;SDS011;49;48.530;9.200;2023-07-30T02:34:00;9.97;;;5.13;;
417;SDS011;49;48.530;9.200;2023-07-30T02:36:27;7.70;;;4.90;;
417;SDS011;49;48.530;9.200;2023-07-30T02:38:54;8.53;;;4.70;;
417;SDS011;49;48.530;9.200;2023-07-30T02:41:21;7.03;;;4.60;;
417;SDS011;49;48.530;9.200;2023-07-30T02:43:48;11.40;;;4.50;;
417;SDS011;49;48.530;9.200;2023-07-30T02:46:16;7.00;;;4.67;;
417;SDS011;49;48.530;9.200;2023-07-30T02:48:43;9.80;;;4.53;;
417;SDS011;49;48.530;9.200;2023-07-30T02:51:13;5.63;;;4.47;;
417;SDS011;49;48.530;9.200;2023-07-30T02:53:42;9.20;;;4.53;;
417;SDS011;49;48.530;9.200;2023-07-30T02:56:09;6.47;;;4.80;;
417;SDS011;49;48.530;9.200;2023-07-30T02:58:36;5.83;;;4.13;;
417;SDS011;49;48.530;9.200;2023-07-30T03:01:06;9.13;;;4.40;;
417;SDS011;49;48.530;9.200;2023-07-30T03:03:37;13.00;;;4.33;;
417;SDS011;49;48.530;9.200;2023-07-30T03:06:04;6.30;;;4.20;;
417;SDS011;49;48.530;9.200;2023-07-30T03:08:31;6.37;;;4.30;;
417;SDS011;49;48.530;9.200;2023-07-30T03:10:58;7.93;;;5.00;;
417;SDS011;49;48.530;9.200;2023-07-30T03:13:25;7.07;;;5.00;;
417;SDS011;49;48.530;9.200;2023-07-30T03:15:52;13.00;;;4.80;;
417;SDS011;49;48.530;9.200;2023-07-30T03:18:19;9.40;;;4.67;;
417;SDS011;49;48.530;9.200;2023-07-30T03:20:48;10.13;;;4.83;;
417;SDS011;49;48.530;9.200;2023-07-30T03:23:15;7.37;;;4.47;;
417;SDS011;49;48.530;9.200;2023-07-30T03:25:42;5.80;;;5.00;;
417;SDS011;49;48.530;9.200;2023-07-30T03:28:09;7.20;;;4.80;;
417;SDS011;49;48.530;9.200;2023-07-30T03:30:37;6.00;;;4.60;;
417;SDS011;49;48.530;9.200;2023-07-30T03:33:04;8.70;;;4.87;;
417;SDS011;49;48.530;9.200;2023-07-30T03:35:31;5.73;;;4.20;;
417;SDS011;49;48.530;9.200;2023-07-30T03:37:59;5.30;;;4.20;;
417;SDS011;49;48.530;9.200;2023-07-30T03:40:26;6.83;;;4.20;;
417;SDS011;49;48.530;9.200;2023-07-30T03:42:54;5.00;;;4.23;;
417;SDS011;49;48.530;9.200;2023-07-30T03:45:21;8.13;;;4.20;;
417;SDS011;49;48.530;9.200;2023-07-30T03:47:48;6.13;;;4.80;;
417;SDS011;49;48.530;9.200;2023-07-30T03:50:16;5.03;;;4.23;;
417;SDS011;49;48.530;9.200;2023-07-30T03:52:43;11.30;;;5.00;;
417;SDS011;49;48.530;9.200;2023-07-30T03:55:12;7.63;;;4.23;;
417;SDS011;49;48.530;9.200;2023-07-30T03:57:39;10.30;;;4.80;;
417;SDS011;49;48.530;9.200;2023-07-30T04:00:06;7.23;;;4.30;;
417;SDS011;49;48.530;9.200;2023-07-30T04:02:38;10.37;;;4.80;;
417;SDS011;49;48.530;9.200;2023-07-30T04:05:06;12.23;;;4.60;;
417;SDS011;49;48.530;9.200;2023-07-30T04:07:34;6.17;;;4.70;;
417;SDS011;49;48.530;9.200;2023-07-30T04:10:01;8.03;;;4.90;;
417;SDS011;49;48.530;9.200;2023-07-30T04:12:30;6.30;;;4.80;;
417;SDS011;49;48.530;9.200;2023-07-30T04:14:58;5.53;;;4.13;;
417;SDS011;49;48.530;9.200;2023-07-30T04:17:25;7.40;;;4.10;;
417;SDS011;49;48.530;9.200;2023-07-30T04:19:52;6.97;;;4.00;;
417;SDS011;49;48.530;9.200;2023-07-30T04:22:19;5.97;;;4.57;;
417;SDS011;49;48.530;9.200;2023-07-30T04:24:47;6.60;;;4.17;;
417;SDS011;49;48.530;9.200;2023-07-30T04:27:15;6.50;;;4.70;;
417;SDS011;49;48.530;9.200;2023-07-30T04:29:45;5.60;;;3.90;;
417;SDS011;49;48.530;9.200;2023-07-30T04:32:13;10.40;;;4.43;;
417;SDS011;49;48.530;9.200;2023-07-30T04:34:40;5.77;;;3.83;;
417;SDS011;49;48.530;9.200;2023-07-30T04:37:07;4.93;;;4.13;;
417;SDS011;49;48.530;9.200;2023-07-30T04:39:34;20.97;;;4.20;;
417;SDS011;49;48.530;9.200;2023-07-30T04:42:02;10.50;;;3.43;;
417;SDS011;49;48.530;9.200;2023-07-30T04:44:29;7.50;;;3.90;;
417;SDS011;49;48.530;9.200;2023-07-30T04:46:57;4.87;;;3.97;;
417;SDS011;49;48.530;9.200;2023-07-30T04:49:25;6.30;;;4.17;;
417;SDS011;49;48.530;9.200;2023-07-30T04:51:52;8.27;;;4.50;;
417;SDS011;49;48.530;9.200;2023-07-30T04:54:19;5.60;;;4.23;;
417;SDS011;49;48.530;9.200;2023-07-30T04:57:00;8.70;;;4.20;;
417;SDS011;49;48.530;9.200;2023-07-30T04:59:28;8.70;;;4.13;;
417;SDS011;49;48.530;9.200;2023-07-30T05:01:55;16.17;;;4.00;;
417;SDS011;49;48.530;9.200;2023-07-30T05:04:23;13.73;;;4.20;;
417;SDS011;49;48.530;9.200;2023-07-30T05:06:50;9.97;;;4.57;;
417;SDS011;49;48.530;9.200;2023-07-30T05:09:17;12.80;;;4.13;;
417;SDS011;49;48.530;9.200;2023-07-30T05:11:44;7.63;;;4.57;;
417;SDS011;49;48.530;9.200;2023-07-30T05:14:11;8.03;;;3.47;;
417;SDS011;49;48.530;9.200;2023-07-30T05:16:39;5.00;;;3.80;;
417;SDS011;49;48.530;9.200;2023-07-30T05:19:10;4.80;;;4.00;;
417;SDS011;49;48.530;9.200;2023-07-30T05:21:38;4.90;;;3.70;;
417;SDS011;49;48.530;9.200;2023-07-30T05:24:06;7.60;;;3.67;;
417;SDS011;49;48.530;9.200;2023-07-30T05:26:34;5.83;;;3.90;;
417;SDS011;49;48.530;9.200;2023-07-30T05:29:00;8.20;;;4.07;;
417;SDS011;49;48.530;9.200;2023-07-30T05:31:28;8.23;;;3.67;;
417;SDS011;49;48.530;9.200;2023-07-30T05:33:55;10.57;;;4.10;;
417;SDS011;49;48.530;9.200;2023-07-30T05:36:22;7.10;;;4.40;;
417;SDS011;49;48.530;9.200;2023-07-30T05:38:50;6.40;;;3.87;;
417;SDS011;49;48.530;9.200;2023-07-30T05:41:17;6.63;;;4.00;;
417;SDS011;49;48.530;9.200;2023-07-30T05:43:46;8.50;;;3.80;;
417;SDS011;49;48.530;9.200;2023-07-30T05:46:13;4.73;;;3.53;;
417;SDS011;49;48.530;9.200;2023-07-30T05:48:40;6.13;;;3.93;;
417;SDS011;49;48.530;9.200;2023-07-30T05:51:07;5.10;;;3.97;;
417;SDS011;49;48.530;9.200;2023-07-30T05:53:34;4.80;;;3.53;;
417;SDS011;49;48.530;9.200;2023-07-30T05:56:03;9.47;;;3.67;;
417;SDS011;49;48.530;9.200;2023-07-30T05:58:30;6.30;;;3.50;;
417;SDS011;49;48.530;9.200;2023-07-30T06:00:57;5.60;;;3.83;;
417;SDS011;49;48.530;9.200;2023-07-30T06:03:23;5.83;;;3.80;;
417;SDS011;49;48.530;9.200;2023-07-30T06:05:50;4.80;;;3.60;;
417;SDS011;49;48.530;9.200;2023-07-30T06:08:17;6.00;;;3.73;;
417;SDS011;49;48.530;9.200;2023-07-30T06:10:44;7.27;;;3.43;;
417;SDS011;49;48.530;9.200;2023-07-30T06:13:13;3.80;;;2.90;;
417;SDS011;49;48.530;9.200;2023-07-30T06:15:40;4.20;;;3.40;;
417;SDS011;49;48.530;9.200;2023-07-30T06:18:07;3.73;;;3.00;;
417;SDS011;49;48.530;9.200;2023-07-30T06:20:34;4.87;;;3.40;;
417;SDS011;49;48.530;9.200;2023-07-30T06:23:01;7.90;;;3.53;;
417;SDS011;49;48.530;9.200;2023-07-30T06:25:28;5.10;;;3.80;;
417;SDS011;49;48.530;9.200;2023-07-30T06:27:56;6.80;;;3.77;;
417;SDS011;49;48.530;9.200;2023-07-30T06:30:25;8.53;;;3.60;;
417;SDS011;49;48.530;9.200;2023-07-30T06:32:51;5.47;;;3.77;;
417;SDS011;49;48.530;9.200;2023-07-30T06:35:18;4.60;;;3.10;;
417;SDS011;49;48.530;9.200;2023-07-30T06:37:45;10.97;;;3.70;;
417;SDS011;49;48.530;9.200;2023-07-30T06:40:12;11.87;;;3.47;;
417;SDS011;49;48.530;9.200;2023-07-30T06:42:39;4.83;;;2.90;;
417;SDS011;49;48.530;9.200;2023-07-30T06:45:07;5.13;;;3.33;;
417;SDS011;49;48.530;9.200;2023-07-30T06:47:36;6.23;;;3.37;;
417;SDS011;49;48.530;9.200;2023-07-30T06:50:03;4.70;;;3.43;;
417;SDS011;49;48.530;9.200;2023-07-30T06:52:33;3.93;;;3.20;;
417;SDS011;49;48.530;9.200;2023-07-30T06:55:00;7.30;;;3.40;;
417;SDS011;49;48.530;9.200;2023-07-30T06:57:27;6.83;;;3.13;;
417;SDS011;49;48.530;9.200;2023-07-30T06:59:54;5.97;;;2.93;;
417;SDS011;49;48.530;9.200;2023-07-30T07:02:21;4.10;;;2.80;;
417;SDS011;49;48.530;9.200;2023-07-30T07:04:50;3.30;;;2.40;;
417;SDS011;49;48.530;9.200;2023-07-30T07:07:17;6.80;;;3.07;;
417;SDS011;49;48.530;9.200;2023-07-30T07:09:44;4.80;;;3.03;;
417;SDS011;49;48.530;9.200;2023-07-30T07:12:11;4.93;;;2.63;;
417;SDS011;49;48.530;9.200;2023-07-30T07:14:37;3.00;;;2.33;;
417;SDS011;49;48.530;9.200;2023-07-30T07:17:08;8.90;;;3.20;;
417;SDS011;49;48.530;9.200;2023-07-30T07:19:35;7.73;;;3.30;;
417;SDS011;49;48.530;9.200;2023-07-30T07:22:05;7.67;;;2.60;;
417;SDS011;49;48.530;9.200;2023-07-30T07:24:32;7.03;;;3.00;;
417;SDS011;49;48.530;9.200;2023-07-30T07:26:59;7.77;;;2.70;;
417;SDS011;49;48.530;9.200;2023-07-30T07:29:27;4.93;;;2.73;;
417;SDS011;49;48.530;9.200;2023-07-30T07:31:54;7.10;;;2.63;;
417;SDS011;49;48.530;9.200;2023-07-30T07:34:21;5.20;;;2.80;;
417;SDS011;49;48.530;9.200;2023-07-30T07:36:48;6.70;;;2.50;;
417;SDS011;49;48.530;9.200;2023-07-30T07:39:17;10.97;;;2.83;;
417;SDS011;49;48.530;9.200;2023-07-30T07:41:44;15.97;;;3.63;;
417;SDS011;49;48.530;9.200;2023-07-30T07:44:11;5.90;;;3.10;;
417;SDS011;49;48.530;9.200;2023-07-30T07:46:38;5.20;;;2.63;;
417;SDS011;49;48.530;9.200;2023-07-30T07:49:04;5.10;;;2.97;;
417;SDS011;49;48.530;9.200;2023-07-30T07:51:33;6.30;;;3.33;;
417;SDS011;49;48.530;9.200;2023-07-30T07:54:00;5.50;;;2.80;;
417;SDS011;49;48.530;9.200;2023-07-30T07:56:29;2.97;;;2.40;;
417;SDS011;49;48.530;9.200;2023-07-30T07:58:56;5.40;;;3.10;;
417;SDS011;49;48.530;9.200;2023-07-30T08:01:22;4.50;;;3.07;;
417;SDS011;49;48.530;9.200;2023-07-30T08:03:49;4.80;;;2.90;;
417;SDS011;49;48.530;9.200;2023-07-30T08:06:17;3.63;;;2.70;;
417;SDS011;49;48.530;9.200;2023-07-30T08:08:43;3.40;;;2.93;;
417;SDS011;49;48.530;9.200;2023-07-30T08:11:10;3.50;;;2.63;;
417;SDS011;49;48.530;9.200;2023-07-30T08:13:39;6.17;;;2.63;;
417;SDS011;49;48.530;9.200;2023-07-30T08:16:06;4.50;;;3.13;;
417;SDS011;49;48.530;9.200;2023-07-30T08:18:33;6.13;;;3.00;;
417;SDS011;49;48.530;9.200;2023-07-30T08:21:00;6.30;;;3.50;;
417;SDS011;49;48.530;9.200;2023-07-30T08:23:26;6.13;;;3.23;;
417;SDS011;49;48.530;9.200;2023-07-30T08:25:53;3.03;;;2.33;;
417;SDS011;49;48.530;9.200;2023-07-30T08:28:20;3.27;;;2.60;;
417;SDS011;49;48.530;9.200;2023-07-30T08:30:48;5.13;;;2.70;;
417;SDS011;49;48.530;9.200;2023-07-30T08:33:15;8.53;;;2.43;;
417;SDS011;49;48.530;9.200;2023-07-30T08:35:42;7.43;;;2.10;;
417;SDS011;49;48.530;9.200;2023-07-30T08:38:09;3.03;;;1.87;;
417;SDS011;49;48.530;9.200;2023-07-30T08:40:36;3.37;;;2.40;;
417;SDS011;49;48.530;9.200;2023-07-30T08:43:02;5.30;;;2.30;;
417;SDS011;49;48.530;9.200;2023-07-30T08:45:30;6.40;;;2.30;;
417;SDS011;49;48.530;9.200;2023-07-30T08:47:58;5.60;;;2.70;;
417;SDS011;49;48.530;9.200;2023-07-30T08:50:25;5.30;;;2.70;;
417;SDS011;49;48.530;9.200;2023-07-30T08:52:54;3.00;;;2.20;;
417;SDS011;49;48.530;9.200;2023-07-30T08:55:21;3.80;;;2.37;;
417;SDS011;49;48.530;9.200;2023-07-30T08:57:50;7.37;;;2.53;;
417;SDS011;49;48.530;9.200;2023-07-30T09:00:17;4.37;;;2.73;;
417;SDS011;49;48.530;9.200;2023-07-30T09:02:47;2.77;;;2.30;;
417;SDS011;49;48.530;9.200;2023-07-30T09:05:19;2.70;;;2.10;;
417;SDS011;49;48.530;9.200;2023-07-30T09:07:47;3.50;;;2.23;;
417;SDS011;49;48.530;9.200;2023-07-30T09:10:14;4.40;;;2.37;;
417;SDS011;49;48.530;9.200;2023-07-30T09:12:41;2.60;;;2.10;;
417;SDS011;49;48.530;9.200;2023-07-30T09:15:08;3.53;;;2.30;;
417;SDS011;49;48.530;9.200;2023-07-30T09:17:36;4.10;;;2.50;;
417;SDS011;49;48.530;9.200;2023-07-30T09:20:03;3.30;;;2.70;;
417;SDS011;49;48.530;9.200;2023-07-30T09:22:33;4.23;;;2.23;;
417;SDS011;49;48.530;9.200;2023-07-30T09:25:04;4.20;;;2.30;;
417;SDS011;49;48.530;9.200;2023-07-30T09:27:32;3.00;;;2.30;;
417;SDS011;49;48.530;9.200;2023-07-30T09:29:59;9.93;;;3.20;;
417;SDS011;49;48.530;9.200;2023-07-30T09:32:27;5.80;;;2.63;;
417;SDS011;49;48.530;9.200;2023-07-30T09:34:55;10.67;;;3.60;;
417;SDS011;49;48.530;9.200;2023-07-30T09:37:22;4.57;;;2.90;;
417;SDS011;49;48.530;9.200;2023-07-30T09:39:51;4.77;;;3.00;;
417;SDS011;49;48.530;9.200;2023-07-30T09:42:18;3.73;;;2.60;;
417;SDS011;49;48.530;9.200;2023-07-30T09:44:46;5.40;;;2.90;;
417;SDS011;49;48.530;9.200;2023-07-30T09:47:14;5.43;;;2.67;;
417;SDS011;49;48.530;9.200;2023-07-30T09:49:41;4.20;;;2.63;;
417;SDS011;49;48.530;9.200;2023-07-30T09:52:12;3.23;;;2.60;;
417;SDS011;49;48.530;9.200;2023-07-30T09:54:43;7.43;;;2.83;;
417;SDS011;49;48.530;9.200;2023-07-30T09:57:12;7.07;;;2.93;;
417;SDS011;49;48.530;9.200;2023-07-30T09:59:39;9.60;;;2.73;;
417;SDS011;49;48.530;9.200;2023-07-30T10:02:06;6.20;;;2.60;;
417;SDS011;49;48.530;9.200;2023-07-30T10:04:34;3.40;;;2.80;;
417;SDS011;49;48.530;9.200;2023-07-30T10:07:08;6.33;;;2.70;;
417;SDS011;49;48.530;9.200;2023-07-30T10:09:39;4.80;;;2.70;;
417;SDS011;49;48.530;9.200;2023-07-30T10:12:09;2.63;;;2.33;;
417;SDS011;49;48.530;9.200;2023-07-30T10:14:39;4.43;;;2.53;;
417;SDS011;49;48.530;9.200;2023-07-30T10:17:09;3.60;;;2.53;;
417;SDS011;49;48.530;9.200;2023-07-30T10:19:37;8.30;;;2.67;;
417;SDS011;49;48.530;9.200;2023-07-30T10:22:19;5.10;;;2.67;;
417;SDS011;49;48.530;9.200;2023-07-30T10:24:55;5.07;;;2.50;;
417;SDS011;49;48.530;9.200;2023-07-30T10:27:23;3.37;;;2.53;;
417;SDS011;49;48.530;9.200;2023-07-30T10:30:07;3.50;;;2.63;;
417;SDS011;49;48.530;9.200;2023-07-30T10:32:39;3.87;;;2.77;;
417;SDS011;49;48.530;9.200;2023-07-30T10:35:07;3.93;;;2.60;;
417;SDS011;49;48.530;9.200;2023-07-30T10:37:34;5.20;;;3.00;;
417;SDS011;49;48.530;9.200;2023-07-30T10:40:07;12.10;;;2.60;;
417;SDS011;49;48.530;9.200;2023-07-30T10:42:43;4.00;;;2.80;;
417;SDS011;49;48.530;9.200;2023-07-30T10:45:11;4.50;;;2.70;;
417;SDS011;49;48.530;9.200;2023-07-30T10:47:40;6.43;;;2.73;;
417;SDS011;49;48.530;9.200;2023-07-30T10:50:07;5.80;;;2.80;;
417;SDS011;49;48.530;9.200;2023-07-30T10:52:36;7.37;;;2.80;;
417;SDS011;49;48.530;9.200;2023-07-30T10:55:04;6.83;;;3.07;;
417;SDS011;49;48.530;9.200;2023-07-30T10:57:31;3.47;;;2.30;;
417;SDS011;49;48.530;9.200;2023-07-30T10:59:59;3.70;;;2.50;;
417;SDS011;49;48.530;9.200;2023-07-30T11:02:29;6.80;;;2.70;;
417;SDS011;49;48.530;9.200;2023-07-30T11:04:56;3.80;;;2.60;;
417;SDS011;49;48.530;9.200;2023-07-30T11:07:24;7.40;;;3.27;;
417;SDS011;49;48.530;9.200;2023-07-30T11:09:58;3.10;;;2.50;;
417;SDS011;49;48.530;9.200;2023-07-30T11:12:27;5.30;;;3.20;;
417;SDS011;49;48.530;9.200;2023-07-30T11:14:59;5.27;;;3.10;;
417;SDS011;49;48.530;9.200;2023-07-30T11:17:29;5.73;;;2.83;;
417;SDS011;49;48.530;9.200;2023-07-30T11:19:56;4.60;;;2.70;;
417;SDS011;49;48.530;9.200;2023-07-30T11:22:29;5.13;;;2.77;;
417;SDS011;49;48.530;9.200;2023-07-30T11:24:57;8.73;;;3.00;;
417;SDS011;49;48.530;9.200;2023-07-30T11:27:26;8.83;;;2.83;;
417;SDS011;49;48.530;9.200;2023-07-30T11:29:53;2.90;;;2.30;;
417;SDS011;49;48.530;9.200;2023-07-30T11:32:21;6.13;;;3.47;;
417;SDS011;49;48.530;9.200;2023-07-30T11:34:52;4.00;;;2.90;;
417;SDS011;49;48.530;9.200;2023-07-30T11:37:19;3.67;;;2.83;;
417;SDS011;49;48.530;9.200;2023-07-30T11:39:47;7.00;;;3.00;;
417;SDS011;49;48.530;9.200;2023-07-30T11:42:14;6.23;;;2.50;;
417;SDS011;49;48.530;9.200;2023-07-30T11:44:41;12.30;;;2.33;;
417;SDS011;49;48.530;9.200;2023-07-30T11:47:09;5.13;;;2.93;;
417;SDS011;49;48.530;9.200;2023-07-30T11:49:36;7.43;;;2.70;;
417;SDS011;49;48.530;9.200;2023-07-30T11:52:08;4.63;;;2.70;;
417;SDS011;49;48.530;9.200;2023-07-30T11:54:36;4.13;;;2.57;;
417;SDS011;49;48.530;9.200;2023-07-30T11:57:04;5.40;;;3.10;;
417;SDS011;49;48.530;9.200;2023-07-30T11:59:32;5.47;;;2.97;;
417;SDS011;49;48.530;9.200;2023-07-30T12:02:01;4.03;;;3.17;;
417;SDS011;49;48.530;9.200;2023-07-30T12:04:39;4.77;;;2.83;;
417;SDS011;49;48.530;9.200;2023-07-30T12:07:20;4.00;;;2.60;;
417;SDS011;49;48.530;9.200;2023-07-30T12:09:49;4.77;;;2.93;;
417;SDS011;49;48.530;9.200;2023-07-30T12:12:16;12.80;;;3.20;;
417;SDS011;49;48.530;9.200;2023-07-30T12:14:52;4.67;;;2.80;;
417;SDS011;49;48.530;9.200;2023-07-30T12:17:22;5.40;;;2.90;;
417;SDS011;49;48.530;9.200;2023-07-30T12:19:53;8.43;;;3.20;;
417;SDS011;49;48.530;9.200;2023-07-30T12:22:24;3.97;;;2.50;;
417;SDS011;49;48.530;9.200;2023-07-30T12:24:52;7.50;;;2.80;;
417;SDS011;49;48.530;9.200;2023-07-30T12:27:20;3.80;;;2.80;;
417;SDS011;49;48.530;9.200;2023-07-30T12:29:49;3.47;;;2.63;;
417;SDS011;49;48.530;9.200;2023-07-30T12:32:17;12.33;;;2.87;;
417;SDS011;49;48.530;9.200;2023-07-30T12:34:44;7.70;;;2.50;;
417;SDS011;49;48.530;9.200;2023-07-30T12:37:17;4.87;;;2.83;;
417;SDS011;49;48.530;9.200;2023-07-30T12:39:58;6.00;;;2.70;;
417;SDS011;49;48.530;9.200;2023-07-30T12:42:30;11.63;;;2.63;;
417;SDS011;49;48.530;9.200;2023-07-30T12:44:58;6.57;;;3.10;;
417;SDS011;49;48.530;9.200;2023-07-30T12:47:35;11.90;;;3.33;;
417;SDS011;49;48.530;9.200;2023-07-30T12:50:11;4.47;;;3.10;;
417;SDS011;49;48.530;9.200;2023-07-30T12:53:11;3.60;;;2.77;;
417;SDS011;49;48.530;9.200;2023-07-30T12:55:55;5.63;;;3.67;;
417;SDS011;49;48.530;9.200;2023-07-30T12:58:36;5.33;;;3.17;;
417;SDS011;49;48.530;9.200;2023-07-30T13:01:16;4.50;;;3.10;;
417;SDS011;49;48.530;9.200;2023-07-30T13:03:51;3.60;;;2.83;;
417;SDS011;49;48.530;9.200;2023-07-30T13:06:22;6.70;;;3.07;;
417;SDS011;49;48.530;9.200;2023-07-30T13:08:59;4.57;;;2.90;;
417;SDS011;49;48.530;9.200;2023-07-30T13:11:29;9.33;;;2.57;;
417;SDS011;49;48.530;9.200;2023-07-30T13:14:02;7.27;;;3.10;;
417;SDS011;49;48.530;9.200;2023-07-30T13:16:34;3.70;;;2.70;;
417;SDS011;49;48.530;9.200;2023-07-30T13:19:02;3.23;;;2.73;;
417;SDS011;49;48.530;9.200;2023-07-30T13:21:29;8.83;;;3.23;;
417;SDS011;49;48.530;9.200;2023-07-30T13:24:01;7.63;;;2.97;;
417;SDS011;49;48.530;9.200;2023-07-30T13:26:29;3.93;;;2.80;;
417;SDS011;49;48.530;9.200;2023-07-30T13:29:00;7.23;;;2.90;;
417;SDS011;49;48.530;9.200;2023-07-30T13:31:32;16.67;;;2.87;;
417;SDS011;49;48.530;9.200;2023-07-30T13:33:59;5.07;;;2.73;;
417;SDS011;49;48.530;9.200;2023-07-30T13:36:34;5.83;;;2.60;;
417;SDS011;49;48.530;9.200;2023-07-30T13:39:05;4.70;;;2.83;;
417;SDS011;49;48.530;9.200;2023-07-30T13:41:37;16.43;;;3.20;;
417;SDS011;49;48.530;9.200;2023-07-30T13:44:05;5.13;;;2.93;;
417;SDS011;49;48.530;9.200;2023-07-30T13:46:37;3.33;;;2.93;;
417;SDS011;49;48.530;9.200;2023-07-30T13:49:05;4.60;;;3.03;;
417;SDS011;49;48.530;9.200;2023-07-30T13:51:34;3.80;;;2.97;;
417;SDS011;49;48.530;9.200;2023-07-30T13:54:01;5.97;;;3.13;;
417;SDS011;49;48.530;9.200;2023-07-30T13:56:32;3.00;;;2.60;;
417;SDS011;49;48.530;9.200;2023-07-30T13:59:00;5.20;;;3.00;;
417;SDS011;49;48.530;9.200;2023-07-30T14:01:28;4.67;;;2.77;;
417;SDS011;49;48.530;9.200;2023-07-30T14:03:58;4.43;;;3.13;;
417;SDS011;49;48.530;9.200;2023-07-30T14:06:25;3.43;;;2.70;;
417;SDS011;49;48.530;9.200;2023-07-30T14:08:53;4.40;;;2.60;;
417;SDS011;49;48.530;9.200;2023-07-30T14:11:21;5.40;;;2.90;;
417;SDS011;49;48.530;9.200;2023-07-30T14:13:52;4.30;;;2.80;;
417;SDS011;49;48.530;9.200;2023-07-30T14:16:19;4.23;;;2.77;;
417;SDS011;49;48.530;9.200;2023-07-30T14:18:53;4.40;;;2.90;;
417;SDS011;49;48.530;9.200;2023-07-30T14:21:21;11.03;;;2.70;;
417;SDS011;49;48.530;9.200;2023-07-30T14:23:52;6.33;;;2.80;;
417;SDS011;49;48.530;9.200;2023-07-30T14:26:19;6.93;;;3.20;;
417;SDS011;49;48.530;9.200;2023-07-30T14:28:53;3.90;;;3.00;;
417;SDS011;49;48.530;9.200;2023-07-30T14:31:28;9.97;;;3.00;;
417;SDS011;49;48.530;9.200;2023-07-30T14:34:00;4.73;;;2.90;;
417;SDS011;49;48.530;9.200;2023-07-30T14:36:32;6.67;;;3.30;;
417;SDS011;49;48.530;9.200;2023-07-30T14:38:58;5.90;;;2.50;;
417;SDS011;49;48.530;9.200;2023-07-30T14:41:25;9.47;;;2.90;;
417;SDS011;49;48.530;9.200;2023-07-30T14:43:55;5.07;;;2.90;;
417;SDS011;49;48.530;9.200;2023-07-30T14:46:24;3.70;;;2.70;;
417;SDS011;49;48.530;9.200;2023-07-30T14:48:54;3.70;;;2.77;;
417;SDS011;49;48.530;9.200;2023-07-30T14:51:22;6.53;;;3.00;;
417;SDS011;49;48.530;9.200;2023-07-30T14:53:49;3.60;;;2.50;;
417;SDS011;49;48.530;9.200;2023-07-30T14:56:16;10.40;;;2.50;;
417;SDS011;49;48.530;9.200;2023-07-30T14:58:43;4.33;;;2.60;;
417;SDS011;49;48.530;9.200;2023-07-30T15:01:13;4.47;;;2.73;;
417;SDS011;49;48.530;9.200;2023-07-30T15:03:45;9.53;;;2.77;;
417;SDS011;49;48.530;9.200;2023-07-30T15:06:12;5.03;;;2.67;;
417;SDS011;49;48.530;9.200;2023-07-30T15:08:54;7.80;;;3.10;;
417;SDS011;49;48.530;9.200;2023-07-30T15:11:21;6.40;;;2.70;;
417;SDS011;49;48.530;9.200;2023-07-30T15:13:50;5.67;;;2.90;;
417;SDS011;49;48.530;9.200;2023-07-30T15:16:26;8.70;;;2.70;;
417;SDS011;49;48.530;9.200;2023-07-30T15:18:57;5.93;;;3.10;;
417;SDS011;49;48.530;9.200;2023-07-30T15:21:25;10.77;;;3.30;;
417;SDS011;49;48.530;9.200;2023-07-30T15:23:56;3.37;;;2.40;;
417;SDS011;49;48.530;9.200;2023-07-30T15:26:24;7.70;;;2.40;;
417;SDS011;49;48.530;9.200;2023-07-30T15:28:51;7.70;;;2.60;;
417;SDS011;49;48.530;9.200;2023-07-30T15:31:27;8.00;;;3.13;;
417;SDS011;49;48.530;9.200;2023-07-30T15:33:57;6.23;;;2.63;;
417;SDS011;49;48.530;9.200;2023-07-30T15:36:29;3.93;;;2.33;;
417;SDS011;49;48.530;9.200;2023-07-30T15:38:57;5.00;;;2.90;;
417;SDS011;49;48.530;9.200;2023-07-30T15:41:31;4.50;;;2.90;;
417;SDS011;49;48.530;9.200;2023-07-30T15:44:01;7.10;;;2.63;;
417;SDS011;49;48.530;9.200;2023-07-30T15:46:32;6.03;;;2.87;;
417;SDS011;49;48.530;9.200;2023-07-30T15:48:59;5.13;;;2.80;;
417;SDS011;49;48.530;9.200;2023-07-30T15:51:26;5.30;;;2.60;;
417;SDS011;49;48.530;9.200;2023-07-30T15:53:57;5.50;;;2.30;;
417;SDS011;49;48.530;9.200;2023-07-30T15:56:25;4.10;;;2.90;;
417;SDS011;49;48.530;9.200;2023-07-30T15:58:52;5.53;;;2.77;;
417;SDS011;49;48.530;9.200;2023-07-30T16:01:21;8.53;;;2.60;;
417;SDS011;49;48.530;9.200;2023-07-30T16:03:57;5.90;;;3.30;;
417;SDS011;49;48.530;9.200;2023-07-30T16:06:29;5.53;;;3.13;;
417;SDS011;49;48.530;9.200;2023-07-30T16:08:56;6.93;;;2.60;;
417;SDS011;49;48.530;9.200;2023-07-30T16:11:24;6.60;;;3.07;;